Latest Coastal Weather Observations for Cape Byron

IDN60701

Issued at 3:22 am EDT Monday 26 January 2015 (issued every 10 minutes, with the page automatically refreshed every 10 minutes)

About coastal observations | Map of coastal stations | Coastal observations for NSW | Marine services | Other Formats
Station Details ID: 058216 Name: CAPE BYRON AWS Lat: -28.64 Lon: 153.64 Height: 95.0 m
Data from the previous 72 hours. | See also: Recent months at Cape Byron
Date/Time
EDT
Temp

°C
Wind Pressure Rain
since 9am
mm
Weather Cloud Vis
km
Sea
Height
m
Swell
Dir
 
Speed
knots
Gust
knots
hPa Trend Height
m
Period
s
Dir
26/03:00am 23.3 W 7 8 1005.7 - 0.0 - - - - - - -
26/02:30am 23.2 WSW 7 9 1005.9 - 0.0 - - - - - - -
26/02:00am 23.3 W 8 10 1006.1 - 0.0 - - - - - - -
26/01:30am 24.0 WNW 7 11 1006.3 - 0.0 - - - - - - -
26/01:00am 24.6 SSW 3 4 1006.2 - 0.0 - - - - - - -
26/12:30am 24.7 SSE 3 3 1006.0 - 0.0 - - - - - - -
26/12:00am 24.9 SSW 3 5 1006.0 - 0.0 - - - - - - -
 
Date/Time
EDT
Temp

°C
Wind Pressure Rain
since 9am
mm
Weather Cloud Vis
km
Sea
Height
m
Swell
Dir
 
Speed
knots
Gust
knots
hPa Trend Height
m
Period
s
Dir
25/11:30pm 25.0 WSW 10 13 1005.8 - 0.0 - - - - - - -
25/11:00pm 24.6 WSW 10 13 1006.1 - 0.0 - - - - - - -
25/10:30pm 24.9 W 11 15 1006.5 - 0.0 - - - - - - -
25/10:00pm 24.9 NW 9 15 1006.3 - 0.0 - - - - - - -
25/09:30pm 25.6 NW 5 8 1005.9 - 0.0 - - - - - - -
25/09:00pm 25.9 NNW 5 9 1006.0 - 0.0 - - - - - - -
25/08:30pm 26.4 NNW 5 8 1005.3 - 0.0 - - - - - - -
25/08:00pm 26.6 NNW 7 9 1004.9 - 0.0 - - - - - - -
25/07:30pm 26.7 NNW 8 11 1004.6 - 0.0 - - - - - - -
25/07:00pm 27.4 NNW 7 9 1003.8 - 0.0 - - - - - - -
25/06:30pm 29.0 N 7 9 1003.3 - 0.0 - - - - - - -
25/06:00pm 28.4 N 8 11 1003.7 - 0.0 - - - - - - -
25/05:30pm 28.3 N 10 13 1003.4 - 0.0 - - - - - - -
25/05:00pm 29.4 N 9 12 1003.3 - 0.0 - - - - - - -
25/04:30pm 29.4 NNE 8 11 1003.3 - 0.0 - - - - - - -
25/04:00pm 30.0 N 8 11 1003.6 - 0.0 - - - - - - -
25/03:30pm 29.9 N 9 13 1003.6 - 0.0 - - - - - - -
25/03:00pm 29.7 NNE 9 13 1003.8 - 0.0 - - - - - - -
25/02:30pm 29.7 NNE 9 14 1003.9 - 0.0 - - - - - - -
25/02:00pm 29.9 NNE 7 12 1004.0 - 0.0 - - - - - - -
25/01:30pm 31.0 NE 9 13 1004.3 - 0.0 - - - - - - -
25/01:00pm 30.4 NE 8 10 1004.4 - 0.0 - - - - - - -
25/12:30pm 29.9 NNE 7 9 1004.8 - 0.0 - - - - - - -
25/12:00pm 30.1 NNE 7 10 1005.0 - 0.0 - - - - - - -
25/11:30am 30.9 NE 7 9 1005.3 - 0.0 - - - - - - -
25/11:00am 30.1 ENE 7 8 1005.5 - 0.0 - - - - - - -
25/10:30am 28.2 N 3 4 1005.5 - 0.0 - - - - - - -
25/10:00am 27.9 N 4 7 1005.4 - 0.0 - - - - - - -
25/09:30am 26.5 N 6 7 1005.7 - 0.0 - - - - - - -
25/09:00am 25.8 N 6 8 1005.8 - 0.0 - - - - - - -
25/08:30am 24.9 N 5 8 1005.6 - 0.0 - - - - - - -
25/08:00am 24.4 N 5 8 1005.7 - 0.0 - - - - - - -
25/07:30am 23.9 NNW 6 9 1005.4 - 0.0 - - - - - - -
25/07:00am 23.6 NNW 7 10 1005.1 - 0.0 - - - - - - -
25/06:30am 23.4 NNW 8 10 1005.0 - 0.0 - - - - - - -
25/06:00am 23.4 N 10 13 1004.9 - 0.0 - - - - - - -
25/05:30am 23.4 N 8 10 1005.0 - 0.0 - - - - - - -
25/05:00am 23.3 N 8 11 1004.9 - 0.0 - - - - - - -
25/04:30am 23.1 NNW 4 6 1004.9 - 0.0 - - - - - - -
25/04:00am 22.8 NNW 5 7 1004.8 - 0.0 - - - - - - -
25/03:30am 22.9 NNW 4 6 1004.9 - 0.0 - - - - - - -
25/03:00am 22.9 NNW 5 6 1004.9 - 0.0 - - - - - - -
25/02:30am 23.1 NNW 5 6 1005.2 - 0.0 - - - - - - -
25/02:00am 22.9 NW 5 6 1005.3 - 0.0 - - - - - - -
25/01:30am 22.8 WNW 6 7 1005.8 - 0.0 - - - - - - -
25/01:00am 22.9 NW 6 7 1006.0 - 0.0 - - - - - - -
25/12:30am 23.0 WNW 6 7 1006.3 - 0.0 - - - - - - -
25/12:00am 23.2 W 7 8 1006.4 - 0.0 - - - - - - -
 
Date/Time
EDT
Temp

°C
Wind Pressure Rain
since 9am
mm
Weather Cloud Vis
km
Sea
Height
m
Swell
Dir
 
Speed
knots
Gust
knots
hPa Trend Height
m
Period
s
Dir
24/11:30pm 23.1 WNW 7 8 1006.7 - 0.0 - - - - - - -
24/11:00pm 23.3 WNW 7 9 1006.7 - 0.0 - - - - - - -
24/10:30pm 24.3 CALM 0 0 1006.5 - 0.0 - - - - - - -
24/10:00pm 24.5 SSE 3 4 1006.2 - 0.0 - - - - - - -
24/09:30pm 24.5 E 3 4 1006.0 - 0.0 - - - - - - -
24/09:00pm 24.5 E 4 5 1005.8 - 0.0 - - - - - - -
24/08:30pm 24.5 ESE 4 6 1005.5 - 0.0 - - - - - - -
24/08:00pm 25.0 ESE 6 7 1005.3 - 0.0 - - - - - - -
24/07:30pm 25.5 SE 7 9 1005.0 - 0.0 - - - - - - -
24/07:00pm 26.6 SSE 6 8 1005.1 - 0.0 - - - - - - -
24/06:30pm 26.6 SSE 6 9 1005.1 - 0.0 - - - - - - -
24/06:00pm 26.7 SSE 8 11 1004.9 - 0.0 - - - - - - -
24/05:30pm 26.8 S 10 12 1004.8 - 0.0 - - - - - - -
24/05:00pm 26.7 S 10 12 1004.9 - 0.0 - - - - - - -
24/04:30pm 26.4 SSW 11 12 1005.2 - 0.0 - - - - - - -
24/04:00pm 26.4 SSW 11 13 1005.5 - 0.0 - - - - - - -
24/03:30pm 26.3 S 11 13 1005.7 - 0.0 - - - - - - -
24/03:00pm 25.8 S 10 11 1006.0 - 0.0 - - - - - - -
24/02:30pm 25.8 SSW 9 11 1006.2 - 0.0 - - - - - - -
24/02:00pm 25.8 SSW 7 8 1006.3 - 0.0 - - - - - - -
24/01:30pm 26.2 SSW 6 8 1006.6 - 0.0 - - - - - - -
24/01:00pm 25.5 S 6 7 1006.7 - 0.0 - - - - - - -
24/12:30pm 25.4 S 7 9 1006.8 - 0.0 - - - - - - -
24/12:00pm 25.2 S 6 7 1006.9 - 0.0 - - - - - - -
24/11:30am 25.1 S 5 6 1007.2 - 0.0 - - - - - - -
24/11:00am 24.7 S 5 7 1007.3 - 0.0 - - - - - - -
24/10:30am 24.6 SSW 5 7 1007.3 - 0.0 - - - - - - -
24/10:00am 24.2 SSW 7 9 1007.4 - 0.0 - - - - - - -
24/09:30am 22.4 SSW 10 13 1007.2 - 0.0 - - - - - - -
24/09:00am 22.7 E 7 11 1007.2 - 6.0 Rain - - - - - -
24/08:30am 22.1 E 7 9 1007.2 - 5.8 - - - - - - -
24/08:00am 22.0 SSE 5 7 1007.2 - 5.2 - - - - - - -
24/07:30am 21.8 ESE 14 17 1006.8 - 3.0 - - - - - - -
24/07:00am 20.6 ESE 14 19 1006.6 - 2.2 - - - - - - -
24/06:30am 21.9 E 13 18 1006.2 - 0.8 - - - - - - -
24/06:00am 22.1 E 21 26 1005.6 - 0.6 Recent precip. - - - - - -
24/05:47am 22.6 E 18 25 1005.4 - 0.6 - - - - - - -
24/05:30am 22.3 S 10 17 1005.7 - 0.6 - - - - - - -
24/05:00am 23.0 E 11 14 1005.1 - 0.4 - - - - - - -
24/04:30am 23.0 E 11 15 1005.2 - 0.4 - - - - - - -
24/04:00am 23.1 E 15 21 1004.8 - 0.4 - - - - - - -
24/03:30am 23.7 E 13 18 1005.0 - 0.4 - - - - - - -
24/03:00am 24.1 E 18 21 1005.0 - 0.4 - - - - - - -
24/02:30am 24.1 E 19 22 1005.1 - 0.4 - - - - - - -
24/02:00am 24.0 E 21 26 1004.8 - 0.4 - - - - - - -
24/01:30am 24.0 E 20 24 1005.3 - 0.4 - - - - - - -
24/01:00am 24.1 E 17 20 1006.0 - 0.4 - - - - - - -
24/12:30am 24.0 E 14 20 1006.3 - 0.4 - - - - - - -
24/12:00am 23.7 E 16 19 1007.1 - 0.4 Rain - - - - - -
 
Date/Time
EDT
Temp

°C
Wind Pressure Rain
since 9am
mm
Weather Cloud Vis
km
Sea
Height
m
Swell
Dir
 
Speed
knots
Gust
knots
hPa Trend Height
m
Period
s
Dir
23/11:30pm 23.8 E 14 19 1007.4 - 0.2 - - - - - - -
23/11:00pm 23.5 E 13 19 1007.9 - 0.2 - - - - - - -
23/10:30pm 24.1 E 17 23 1007.8 - 0.2 - - - - - - -
23/10:00pm 24.0 E 18 21 1007.6 - 0.2 - - - - - - -
23/09:30pm 24.0 E 18 21 1007.6 - 0.2 - - - - - - -
23/09:00pm 23.8 E 17 21 1007.7 - 0.2 - - - - - - -
23/08:30pm 23.4 E 14 21 1007.8 - 0.2 - - - - - - -
23/08:00pm 22.0 SSW 9 16 1008.0 - 0.2 - - - - - - -
23/07:30pm 22.1 SW 13 17 1007.7 - 0.2 - - - - - - -
23/07:00pm 24.0 SSE 13 16 1007.7 - 0.2 - - - - - - -
23/06:30pm 24.1 SSE 16 21 1007.2 - 0.2 - - - - - - -
23/06:00pm 24.0 SSE 15 20 1007.1 - 0.2 - - - - - - -
23/05:30pm 24.1 SE 17 23 1007.2 - 0.2 - - - - - - -
23/05:00pm 24.1 SE 18 22 1007.3 - 0.2 - - - - - - -
23/04:30pm 23.8 SE 18 24 1007.1 - 0.2 - - - - - - -
23/04:00pm 24.1 SE 19 23 1006.9 - 0.2 - - - - - - -
23/03:30pm 24.2 ESE 19 24 1007.2 - 0.2 - - - - - - -
23/03:00pm 24.2 ESE 21 25 1007.2 - 0.2 - - - - - - -
23/02:30pm 24.0 ESE 23 27 1007.1 - 0.2 - - - - - - -
23/02:00pm 24.0 E 24 28 1007.6 - 0.2 - - - - - - -
23/01:30pm 24.3 E 24 28 1007.8 - 0.2 - - - - - - -
23/01:00pm 24.3 E 24 28 1008.1 - 0.2 - - - - - - -
23/12:30pm 24.8 E 21 27 1008.4 - 0.2 - - - - - - -
23/12:00pm 24.7 E 24 29 1008.6 - 0.2 - - - - - - -
23/11:30am 24.8 E 22 29 1008.7 - 0.2 - - - - - - -
23/11:00am 24.5 E 19 26 1009.1 - 0.2 - - - - - - -
23/10:43am 24.2 E 15 25 1009.4 - 0.2 - - - - - - -
23/10:30am 24.2 E 17 25 1009.3 - 0.2 - - - - - - -
23/10:24am 24.4 E 15 25 1009.2 - 0.2 - - - - - - -
23/10:00am 24.2 E 14 22 1009.6 - 0.2 - - - - - - -
23/09:30am 24.3 ENE 13 22 1009.6 - 0.0 - - - - - - -
23/09:00am 24.4 E 14 21 1009.6 - 22.4 - - - - - - -
23/08:30am 24.2 ENE 13 19 1009.5 - 22.4 - - - - - - -
23/08:00am 23.9 E 14 21 1009.5 - 22.4 - - - - - - -
23/07:30am 24.3 E 14 21 1009.2 - 22.4 - - - - - - -
23/07:00am 24.4 ENE 14 21 1009.0 - 22.4 - - - - - - -
23/06:30am 24.3 E 13 21 1008.5 - 22.4 - - - - - - -
23/06:00am 24.2 E 15 21 1008.2 - 22.4 - - - - - - -
23/05:30am 24.2 E 14 23 1008.2 - 22.4 - - - - - - -
23/05:00am 24.2 E 14 21 1008.0 - 22.4 - - - - - - -
23/04:30am 24.1 E 14 20 1008.0 - 22.4 - - - - - - -
23/04:00am 24.1 ENE 14 20 1008.1 - 22.4 - - - - - - -
23/03:30am 24.0 ENE 14 22 1008.1 - 22.4 - - - - - - -

Other Formats:

Comma delimited format used in spreadsheet applications
http://www.bom.gov.au/fwo/IDN60701/IDN60701.94599.axf

JavaScript Object Notation format (JSON) in row-major order
http://www.bom.gov.au/fwo/IDN60701/IDN60701.94599.json